createdAt,value
2022-09-25T00:02:28.924Z,15.26
2022-09-25T00:04:58.781Z,14.60
2022-09-25T00:07:28.302Z,15.28
2022-09-25T00:09:57.857Z,15.28
2022-09-25T00:12:28.019Z,13.98
2022-09-25T00:15:02.300Z,15.38
2022-09-25T00:17:33.100Z,15.38
2022-09-25T00:20:01.258Z,15.24
2022-09-25T00:22:35.300Z,15.33
2022-09-25T00:25:04.890Z,15.32
2022-09-25T00:27:34.014Z,15.29
2022-09-25T00:30:04.555Z,15.21
2022-09-25T00:32:33.309Z,15.11
2022-09-25T00:35:03.240Z,15.27
2022-09-25T00:37:33.257Z,15.16
2022-09-25T00:40:07.138Z,15.10
2022-09-25T00:42:36.525Z,15.28
2022-09-25T00:45:16.554Z,15.25
2022-09-25T00:48:03.727Z,15.20
2022-09-25T00:50:31.603Z,15.26
2022-09-25T00:53:12.001Z,15.28
2022-09-25T00:55:42.811Z,14.94
2022-09-25T00:58:14.569Z,15.12
2022-09-25T01:00:41.009Z,15.18
2022-09-25T01:03:15.955Z,14.98
2022-09-25T01:05:46.831Z,15.25
2022-09-25T01:08:16.529Z,15.22
2022-09-25T01:10:42.855Z,15.11
2022-09-25T01:13:13.231Z,14.98
2022-09-25T01:15:56.733Z,15.03
2022-09-25T01:18:31.773Z,14.43
2022-09-25T01:21:37.819Z,14.59
2022-09-25T01:24:32.746Z,14.79
2022-09-25T01:27:02.681Z,14.84
2022-09-25T01:29:55.354Z,14.95
2022-09-25T01:32:33.920Z,13.97
2022-09-25T01:35:12.260Z,14.90
2022-09-25T01:37:43.813Z,15.06
2022-09-25T01:40:17.850Z,14.83
2022-09-25T01:43:05.558Z,14.96
2022-09-25T01:45:40.505Z,14.90
2022-09-25T01:48:08.896Z,14.83
2022-09-25T01:50:46.300Z,14.84
2022-09-25T01:53:22.108Z,14.93
2022-09-25T01:55:52.301Z,14.78
2022-09-25T01:58:30.024Z,14.99
2022-09-25T02:01:12.417Z,14.85
2022-09-25T02:03:46.706Z,14.85
2022-09-25T02:06:19.268Z,14.92
2022-09-25T02:08:53.240Z,14.79
2022-09-25T02:11:29.586Z,14.51
2022-09-25T02:14:04.728Z,14.85
2022-09-25T02:16:37.422Z,14.78
2022-09-25T02:19:26.439Z,14.73
2022-09-25T02:22:04.359Z,14.80
2022-09-25T02:24:58.452Z,14.66
2022-09-25T02:27:26.861Z,14.59
2022-09-25T02:29:54.580Z,14.63
2022-09-25T02:32:39.151Z,14.12
2022-09-25T02:35:05.594Z,14.66
2022-09-25T02:37:32.074Z,14.72
2022-09-25T02:40:03.657Z,14.69
2022-09-25T02:42:38.951Z,14.66
2022-09-25T02:45:28.276Z,14.72
2022-09-25T02:48:20.200Z,14.75
2022-09-25T02:51:08.641Z,14.70
2022-09-25T02:53:46.592Z,14.71
2022-09-25T02:56:39.315Z,14.52
2022-09-25T02:59:23.935Z,14.68
2022-09-25T03:01:58.712Z,14.48
2022-09-25T03:04:29.056Z,14.38
2022-09-25T03:06:59.115Z,14.44
2022-09-25T03:09:33.034Z,14.55
2022-09-25T03:12:06.777Z,14.27
2022-09-25T03:14:36.727Z,14.25
2022-09-25T03:17:07.438Z,14.19
2022-09-25T03:19:35.934Z,14.46
2022-09-25T03:22:06.185Z,14.61
2022-09-25T03:24:36.341Z,14.44
2022-09-25T03:27:05.216Z,14.17
2022-09-25T03:29:35.258Z,14.44
2022-09-25T03:32:04.523Z,14.30
2022-09-25T03:34:33.919Z,14.41
2022-09-25T03:37:07.375Z,14.48
2022-09-25T03:39:37.041Z,14.33
2022-09-25T03:42:06.782Z,14.22
2022-09-25T03:44:36.624Z,14.03
2022-09-25T03:47:06.465Z,14.38
2022-09-25T03:49:36.121Z,14.49
2022-09-25T03:52:05.394Z,13.68
2022-09-25T03:54:35.244Z,14.27
2022-09-25T03:57:05.590Z,14.29
2022-09-25T03:59:35.428Z,14.10
2022-09-25T04:02:05.234Z,14.28
2022-09-25T04:04:37.381Z,14.38
2022-09-25T04:07:07.947Z,14.16
2022-09-25T04:09:36.096Z,14.23
2022-09-25T04:12:06.698Z,14.21
2022-09-25T04:14:36.211Z,14.25
2022-09-25T04:17:05.527Z,14.43
2022-09-25T04:19:34.968Z,14.08
2022-09-25T04:22:06.706Z,14.32
2022-09-25T04:24:48.958Z,14.40
2022-09-25T04:27:19.717Z,14.10
2022-09-25T04:29:46.102Z,14.19
2022-09-25T04:32:32.664Z,14.28
2022-09-25T04:34:59.151Z,13.89
2022-09-25T04:37:25.623Z,14.07
2022-09-25T04:39:56.694Z,14.22
2022-09-25T04:42:23.971Z,14.14
2022-09-25T04:44:54.423Z,13.69
2022-09-25T04:47:25.471Z,14.09
2022-09-25T04:49:55.433Z,14.31
2022-09-25T04:52:21.617Z,14.28
2022-09-25T04:54:47.778Z,13.10
2022-09-25T04:57:38.773Z,14.19
2022-09-25T05:00:06.580Z,14.26
2022-09-25T05:02:32.909Z,14.09
2022-09-25T05:05:07.283Z,14.39
2022-09-25T05:07:38.085Z,14.08
2022-09-25T05:10:08.087Z,14.29
2022-09-25T05:12:35.448Z,14.31
2022-09-25T05:15:05.969Z,14.26
2022-09-25T05:17:32.831Z,14.32
2022-09-25T05:19:59.021Z,13.90
2022-09-25T05:22:25.216Z,13.86
2022-09-25T05:24:59.054Z,14.09
2022-09-25T05:27:25.466Z,14.26
2022-09-25T05:29:51.745Z,13.78
2022-09-25T05:32:18.266Z,14.15
2022-09-25T05:34:47.969Z,14.40
2022-09-25T05:37:14.113Z,14.02
2022-09-25T05:39:41.768Z,14.14
2022-09-25T05:42:11.565Z,14.18
2022-09-25T05:44:41.580Z,14.09
2022-09-25T05:47:10.363Z,14.24
2022-09-25T05:49:39.822Z,14.26
2022-09-25T05:52:09.598Z,14.21
2022-09-25T05:54:39.057Z,14.38
2022-09-25T05:57:09.028Z,14.33
2022-09-25T05:59:38.699Z,14.02
2022-09-25T06:02:12.353Z,14.16
2022-09-25T06:04:41.446Z,14.33
2022-09-25T06:07:11.019Z,14.24
2022-09-25T06:09:40.708Z,13.13
2022-09-25T06:12:10.623Z,13.95
2022-09-25T06:14:52.107Z,14.11
2022-09-25T06:17:22.423Z,14.09
2022-09-25T06:19:51.449Z,13.57
2022-09-25T06:22:21.191Z,14.18
2022-09-25T06:24:50.731Z,13.76
2022-09-25T06:27:20.873Z,14.10
2022-09-25T06:29:50.063Z,14.17
2022-09-25T06:32:22.584Z,13.99
2022-09-25T06:34:49.590Z,13.07
2022-09-25T06:37:22.648Z,13.61
2022-09-25T06:39:52.002Z,14.08
2022-09-25T06:42:22.413Z,14.01
2022-09-25T06:44:52.061Z,14.05
2022-09-25T06:47:26.631Z,13.55
2022-09-25T06:49:52.996Z,14.00
2022-09-25T06:52:21.814Z,14.17
2022-09-25T06:54:53.585Z,14.31
2022-09-25T06:57:23.385Z,14.14
2022-09-25T06:59:52.488Z,13.51
2022-09-25T07:02:40.316Z,13.75
2022-09-25T07:05:07.069Z,13.86
2022-09-25T07:07:33.269Z,14.00
2022-09-25T07:10:00.523Z,14.08
2022-09-25T07:12:33.946Z,14.12
2022-09-25T07:14:59.975Z,14.18
2022-09-25T07:17:26.096Z,13.74
2022-09-25T07:19:52.268Z,13.89
2022-09-25T07:22:28.806Z,14.25
2022-09-25T07:24:55.537Z,14.21
2022-09-25T07:27:25.007Z,13.84
2022-09-25T07:29:54.543Z,14.08
2022-09-25T07:32:23.919Z,14.07
2022-09-25T07:34:53.287Z,13.97
2022-09-25T07:37:22.895Z,14.22
2022-09-25T07:39:52.368Z,14.34
2022-09-25T07:42:22.420Z,14.55
2022-09-25T07:44:52.137Z,14.45
2022-09-25T07:47:21.766Z,13.93
2022-09-25T07:49:54.571Z,13.76
2022-09-25T07:52:24.495Z,14.42
2022-09-25T07:54:53.611Z,14.23
2022-09-25T07:57:23.465Z,14.52
2022-09-25T07:59:52.991Z,14.30
2022-09-25T08:02:23.878Z,13.68
2022-09-25T08:04:53.868Z,14.13
2022-09-25T08:07:27.286Z,14.08
2022-09-25T08:09:55.795Z,14.61
2022-09-25T08:12:25.226Z,14.23
2022-09-25T08:14:54.746Z,14.51
2022-09-25T08:17:24.189Z,14.14
2022-09-25T08:19:53.604Z,13.70
2022-09-25T08:22:24.051Z,13.84
2022-09-25T08:24:53.415Z,14.37
2022-09-25T08:27:23.163Z,14.34
2022-09-25T08:29:52.774Z,14.48
2022-09-25T08:32:23.283Z,13.23
2022-09-25T08:34:55.696Z,14.68
2022-09-25T08:37:25.401Z,14.53
2022-09-25T08:39:55.319Z,14.66
2022-09-25T08:42:29.899Z,14.83
2022-09-25T08:45:21.496Z,13.78
2022-09-25T08:48:09.615Z,14.25
2022-09-25T08:50:40.435Z,14.12
2022-09-25T08:56:14.764Z,14.68
2022-09-25T08:58:50.926Z,14.65
2022-09-25T09:01:27.705Z,14.24
2022-09-25T09:04:14.662Z,14.45
2022-09-25T09:07:24.728Z,13.89
2022-09-25T09:09:49.311Z,14.37
2022-09-25T09:12:30.623Z,13.23
2022-09-25T09:15:25.341Z,14.82
2022-09-25T09:17:56.219Z,14.63
2022-09-25T09:20:50.879Z,14.74
2022-09-25T09:23:33.005Z,14.73
2022-09-25T09:26:05.188Z,13.39
2022-09-25T09:28:59.491Z,14.62
2022-09-25T09:31:43.973Z,14.75
2022-09-25T09:35:04.588Z,14.85
2022-09-25T09:38:00.458Z,14.14
2022-09-25T09:40:54.834Z,14.28
2022-09-25T09:43:37.903Z,14.74
2022-09-25T09:46:25.995Z,14.53
2022-09-25T09:49:08.844Z,14.71
2022-09-25T09:51:49.108Z,14.42
2022-09-25T09:54:24.413Z,13.79
2022-09-25T09:56:56.047Z,14.71
2022-09-25T09:59:30.771Z,14.66
2022-09-25T10:02:26.612Z,14.48
2022-09-25T10:04:54.352Z,14.90
2022-09-25T10:07:26.327Z,14.66
2022-09-25T10:09:53.918Z,13.42
2022-09-25T10:12:29.375Z,14.90
2022-09-25T10:15:11.989Z,14.94
2022-09-25T10:17:42.479Z,14.38
2022-09-25T10:20:20.040Z,14.61
2022-09-25T10:22:53.178Z,14.33
2022-09-25T10:25:39.689Z,14.82
2022-09-25T10:28:31.719Z,14.88
2022-09-25T10:31:02.407Z,14.43
2022-09-25T10:33:32.690Z,14.89
2022-09-25T10:36:02.992Z,14.83
2022-09-25T10:38:37.680Z,14.76
2022-09-25T10:41:16.438Z,14.56
2022-09-25T10:43:57.578Z,13.79
2022-09-25T10:46:54.180Z,14.65
2022-09-25T10:49:44.456Z,14.78
2022-09-25T10:52:13.180Z,14.51
2022-09-25T10:54:45.493Z,14.90
2022-09-25T10:57:17.877Z,15.00
2022-09-25T10:59:49.718Z,15.06
2022-09-25T11:02:35.145Z,14.92
2022-09-25T11:05:02.944Z,14.57
2022-09-25T11:07:29.475Z,14.95
2022-09-25T11:10:05.547Z,14.90
2022-09-25T11:12:35.719Z,14.56
2022-09-25T11:15:05.114Z,15.11
2022-09-25T11:17:42.284Z,12.79
2022-09-25T11:20:15.601Z,14.47
2022-09-25T11:22:55.574Z,14.73
2022-09-25T11:25:39.662Z,13.74
2022-09-25T11:28:27.312Z,14.96
2022-09-25T11:31:01.459Z,14.89
2022-09-25T11:33:49.145Z,15.13
2022-09-25T11:36:32.227Z,14.90
2022-09-25T11:39:28.906Z,14.83
2022-09-25T11:42:27.866Z,14.86
2022-09-25T11:45:01.913Z,14.88
2022-09-25T11:47:56.977Z,14.07
2022-09-25T11:50:39.303Z,14.86
2022-09-25T11:53:48.131Z,14.91
2022-09-25T11:56:42.324Z,14.77
2022-09-25T11:59:39.707Z,14.95
2022-09-25T12:02:30.565Z,14.54
2022-09-25T12:05:24.684Z,14.69
2022-09-25T12:08:13.059Z,14.93
2022-09-25T12:10:49.175Z,14.77
2022-09-25T12:13:40.364Z,14.72
2022-09-25T12:16:35.406Z,14.93
2022-09-25T12:19:18.458Z,15.08
2022-09-25T12:22:00.549Z,15.09
2022-09-25T12:24:59.992Z,15.00
2022-09-25T12:27:36.780Z,14.94
2022-09-25T12:30:23.334Z,15.05
2022-09-25T12:33:21.364Z,15.22
2022-09-25T12:36:14.138Z,13.87
2022-09-25T12:38:55.442Z,14.92
2022-09-25T12:41:48.595Z,14.71
2022-09-25T12:44:33.415Z,14.75
2022-09-25T12:47:08.996Z,14.93
2022-09-25T12:49:39.687Z,15.14
2022-09-25T12:52:12.383Z,15.42
2022-09-25T12:54:53.660Z,15.22
2022-09-25T12:57:32.347Z,15.10
2022-09-25T13:00:19.229Z,14.76
2022-09-25T13:02:57.864Z,15.03
2022-09-25T13:05:51.890Z,15.15
2022-09-25T13:08:26.993Z,15.58
2022-09-25T13:11:06.348Z,15.52
2022-09-25T13:13:42.619Z,15.71
2022-09-25T13:16:15.335Z,15.83
2022-09-25T13:19:10.471Z,15.44
2022-09-25T13:21:43.776Z,15.56
2022-09-25T13:24:16.954Z,14.55
2022-09-25T13:26:46.364Z,15.07
2022-09-25T13:29:28.971Z,15.69
2022-09-25T13:32:07.149Z,14.95
2022-09-25T13:34:39.389Z,15.23
2022-09-25T13:37:08.208Z,14.45
2022-09-25T13:39:59.532Z,15.49
2022-09-25T13:42:38.183Z,15.13
2022-09-25T13:45:17.121Z,15.15
2022-09-25T13:48:08.054Z,15.48
2022-09-25T13:50:45.954Z,15.68
2022-09-25T13:53:22.169Z,12.83
2022-09-25T13:55:55.004Z,15.28
2022-09-25T13:58:33.775Z,15.31
2022-09-25T14:01:11.042Z,13.99
2022-09-25T14:03:49.539Z,14.59
2022-09-25T14:06:34.426Z,15.88
2022-09-25T14:09:08.653Z,13.48
2022-09-25T14:11:40.633Z,15.60
2022-09-25T14:14:09.465Z,15.74
2022-09-25T14:16:51.306Z,15.30
2022-09-25T14:19:26.629Z,15.46
2022-09-25T14:21:54.155Z,14.53
2022-09-25T14:24:28.383Z,15.46
2022-09-25T14:27:03.283Z,14.88
2022-09-25T14:29:38.678Z,15.33
2022-09-25T14:35:54.292Z,15.57
2022-09-25T14:38:50.036Z,15.62
2022-09-25T14:41:25.362Z,15.89
2022-09-25T14:44:15.856Z,15.94
2022-09-25T14:46:48.333Z,15.87
2022-09-25T14:49:29.538Z,15.64
2022-09-25T14:52:02.761Z,15.49
2022-09-25T14:54:35.860Z,11.27
2022-09-25T14:57:07.425Z,14.63
2022-09-25T14:59:41.581Z,14.93
2022-09-25T15:02:22.045Z,16.16
2022-09-25T15:04:57.063Z,16.18
2022-09-25T15:07:31.362Z,15.05
2022-09-25T15:10:01.301Z,15.35
2022-09-25T15:12:35.360Z,15.90
2022-09-25T15:15:12.380Z,15.66
2022-09-25T15:18:01.872Z,16.02
2022-09-25T15:20:32.877Z,15.49
2022-09-25T15:23:09.649Z,15.93
2022-09-25T15:25:42.712Z,15.63
2022-09-25T15:28:39.050Z,15.86
2022-09-25T15:31:08.827Z,15.78
2022-09-25T15:33:40.134Z,15.62
2022-09-25T15:36:19.469Z,15.49
2022-09-25T15:38:52.251Z,15.49
2022-09-25T15:41:19.150Z,15.59
2022-09-25T15:44:10.803Z,15.77
2022-09-25T15:46:38.875Z,15.37
2022-09-25T15:49:05.535Z,15.71
2022-09-25T15:51:35.708Z,15.64
2022-09-25T15:54:33.568Z,15.72
2022-09-25T15:57:12.555Z,15.55
2022-09-25T16:00:04.361Z,15.74
2022-09-25T16:03:06.714Z,15.26
2022-09-25T16:05:37.565Z,15.71
2022-09-25T16:08:29.380Z,15.33
2022-09-25T16:11:13.199Z,15.33
2022-09-25T16:13:42.897Z,15.49
2022-09-25T16:16:28.683Z,15.55
2022-09-25T16:18:56.623Z,15.52
2022-09-25T16:21:32.308Z,15.37
2022-09-25T16:24:06.583Z,15.82
2022-09-25T16:26:38.178Z,15.72
2022-09-25T16:29:11.328Z,15.74
2022-09-25T16:31:42.771Z,15.77
2022-09-25T16:34:25.454Z,15.64
2022-09-25T16:36:58.681Z,15.79
2022-09-25T16:39:30.588Z,15.77
2022-09-25T16:41:59.200Z,15.38
2022-09-25T16:44:29.331Z,15.75
2022-09-25T16:46:59.545Z,15.67
2022-09-25T16:49:32.306Z,15.56
2022-09-25T16:52:07.664Z,15.27
2022-09-25T16:54:37.871Z,15.42
2022-09-25T16:57:09.114Z,14.00
2022-09-25T16:59:36.114Z,15.18
2022-09-25T17:02:18.845Z,14.33
2022-09-25T17:04:50.021Z,15.36
2022-09-25T17:07:24.315Z,14.85
2022-09-25T17:09:54.946Z,14.30
2022-09-25T17:12:25.407Z,15.10
2022-09-25T17:14:55.887Z,15.34
2022-09-25T17:17:25.546Z,15.28
2022-09-25T17:19:55.539Z,15.38
2022-09-25T17:22:29.373Z,14.13
2022-09-25T17:25:41.031Z,15.44
2022-09-25T17:28:11.534Z,15.45
2022-09-25T17:30:42.552Z,15.38
2022-09-25T17:33:17.888Z,15.23
2022-09-25T17:35:58.279Z,15.21
2022-09-25T17:38:26.571Z,14.74
2022-09-25T17:40:56.389Z,14.99
2022-09-25T17:43:25.407Z,15.09
2022-09-25T17:45:59.832Z,14.47
2022-09-25T17:48:29.961Z,15.09
2022-09-25T17:51:03.266Z,15.21
2022-09-25T17:53:31.238Z,14.82
2022-09-25T17:55:59.272Z,15.03
2022-09-25T17:58:29.317Z,15.18
2022-09-25T18:01:00.439Z,15.02
2022-09-25T18:03:30.438Z,15.10
2022-09-25T18:05:58.309Z,15.16
2022-09-25T18:08:27.693Z,15.13
2022-09-25T18:10:58.189Z,15.15
2022-09-25T18:13:31.192Z,15.18
2022-09-25T18:16:01.193Z,15.15
2022-09-25T18:18:50.222Z,14.46
2022-09-25T18:21:38.170Z,15.15
2022-09-25T18:24:04.560Z,14.90
2022-09-25T18:26:31.525Z,14.85
2022-09-25T18:29:02.842Z,15.09
2022-09-25T18:31:33.030Z,14.87
2022-09-25T18:33:59.155Z,15.00
2022-09-25T18:36:25.543Z,15.11
2022-09-25T18:38:56.481Z,15.11
2022-09-25T18:41:22.866Z,14.64
2022-09-25T18:43:49.017Z,14.70
2022-09-25T18:46:15.498Z,15.04
2022-09-25T18:48:47.171Z,14.76
2022-09-25T18:51:14.280Z,14.54
2022-09-25T18:53:40.565Z,14.80
2022-09-25T18:56:07.520Z,11.64
2022-09-25T18:58:36.546Z,14.62
2022-09-25T19:01:05.567Z,14.45
2022-09-25T19:03:37.092Z,13.48
2022-09-25T19:06:06.283Z,14.34
2022-09-25T19:08:33.450Z,14.72
2022-09-25T19:11:11.569Z,14.83
2022-09-25T19:13:37.827Z,14.87
2022-09-25T19:16:10.296Z,14.89
2022-09-25T19:18:39.686Z,14.81
2022-09-25T19:21:15.619Z,14.88
2022-09-25T19:23:50.075Z,14.74
2022-09-25T19:26:21.529Z,14.64
2022-09-25T19:28:47.888Z,14.70
2022-09-25T19:31:20.017Z,14.74
2022-09-25T19:33:48.083Z,14.33
2022-09-25T19:36:20.321Z,14.65
2022-09-25T19:38:47.211Z,14.23
2022-09-25T19:41:26.907Z,13.71
2022-09-25T19:43:56.415Z,14.41
2022-09-25T19:46:23.279Z,14.42
2022-09-25T19:48:49.501Z,14.49
2022-09-25T19:51:21.881Z,14.25
2022-09-25T19:53:48.418Z,14.44
2022-09-25T19:56:15.486Z,14.41
2022-09-25T19:58:43.335Z,13.26
2022-09-25T20:01:16.040Z,14.38
2022-09-25T20:03:42.594Z,14.16
2022-09-25T20:06:12.275Z,13.65
2022-09-25T20:08:42.463Z,13.97
2022-09-25T20:11:23.746Z,13.75
2022-09-25T20:13:51.184Z,13.52
2022-09-25T20:16:24.318Z,13.28
2022-09-25T20:19:02.097Z,11.84
2022-09-25T20:21:33.751Z,13.03
2022-09-25T20:24:02.281Z,13.02
2022-09-25T20:26:32.598Z,12.98
2022-09-25T20:29:01.530Z,13.36
2022-09-25T20:31:29.445Z,13.66
2022-09-25T20:33:55.840Z,13.66
2022-09-25T20:36:25.237Z,13.59
2022-09-25T20:38:53.145Z,13.62
2022-09-25T20:41:20.464Z,13.47
2022-09-25T20:43:50.605Z,13.40
2022-09-25T20:46:19.630Z,13.40
2022-09-25T20:48:50.790Z,12.98
2022-09-25T20:51:20.774Z,13.46
2022-09-25T20:54:01.302Z,13.40
2022-09-25T20:56:29.042Z,13.48
2022-09-25T20:58:56.144Z,13.15
2022-09-25T21:01:24.962Z,13.26
2022-09-25T21:03:58.471Z,13.13
2022-09-25T21:06:27.407Z,13.34
2022-09-25T21:08:55.945Z,12.80
2022-09-25T21:11:25.075Z,12.39
2022-09-25T21:13:57.446Z,13.10
2022-09-25T21:16:24.639Z,12.58
2022-09-25T21:19:04.535Z,12.08
2022-09-25T21:21:33.613Z,12.39
2022-09-25T21:24:01.511Z,13.02
2022-09-25T21:26:29.361Z,13.07
2022-09-25T21:29:01.660Z,8.51
2022-09-25T21:31:34.732Z,13.10
2022-09-25T21:34:01.451Z,12.97
2022-09-25T21:36:29.115Z,13.01
2022-09-25T21:39:03.222Z,12.73
2022-09-25T21:41:32.161Z,12.99
2022-09-25T21:44:05.351Z,12.75
2022-09-25T21:46:32.739Z,12.78
2022-09-25T21:49:05.233Z,12.88
2022-09-25T21:51:41.910Z,12.79
2022-09-25T21:54:09.437Z,12.86
2022-09-25T21:56:42.527Z,12.76
2022-09-25T21:59:09.809Z,12.29
2022-09-25T22:01:39.350Z,12.75
2022-09-25T22:04:11.955Z,11.52
2022-09-25T22:06:41.467Z,11.85
2022-09-25T22:09:10.491Z,12.51
2022-09-25T22:11:38.642Z,11.42
2022-09-25T22:14:15.842Z,12.26
2022-09-25T22:16:44.571Z,12.00
2022-09-25T22:19:19.365Z,12.48
2022-09-25T22:21:47.117Z,11.29
2022-09-25T22:24:14.668Z,12.03
2022-09-25T22:26:45.862Z,11.51
2022-09-25T22:29:14.784Z,12.13
2022-09-25T22:31:43.764Z,12.08
2022-09-25T22:34:19.442Z,11.85
2022-09-25T22:36:45.914Z,12.03
2022-09-25T22:39:14.690Z,12.10
2022-09-25T22:41:53.199Z,12.14
2022-09-25T22:44:20.235Z,11.84
2022-09-25T22:46:49.190Z,12.19
2022-09-25T22:49:19.412Z,12.04
2022-09-25T22:51:49.331Z,12.18
2022-09-25T22:54:19.556Z,11.97
2022-09-25T22:56:49.186Z,11.91
2022-09-25T22:59:24.297Z,12.00
2022-09-25T23:01:54.663Z,11.40
2022-09-25T23:04:24.915Z,11.71
2022-09-25T23:06:53.921Z,11.67
2022-09-25T23:09:25.237Z,11.40
2022-09-25T23:11:54.354Z,11.94
2022-09-25T23:14:25.418Z,11.79
2022-09-25T23:16:53.329Z,11.36
2022-09-25T23:19:22.189Z,11.97
2022-09-25T23:21:52.474Z,12.03
2022-09-25T23:24:21.366Z,12.01
2022-09-25T23:26:55.147Z,11.79
2022-09-25T23:29:24.251Z,11.91
2022-09-25T23:31:53.810Z,11.88
2022-09-25T23:34:23.457Z,11.84
2022-09-25T23:36:53.468Z,10.78
2022-09-25T23:39:22.989Z,11.51
2022-09-25T23:41:52.808Z,11.59
2022-09-25T23:44:22.530Z,11.67
2022-09-25T23:46:52.448Z,11.64
2022-09-25T23:49:21.765Z,11.70
2022-09-25T23:51:53.263Z,11.72
2022-09-25T23:54:26.407Z,11.32
2022-09-25T23:56:56.064Z,11.80
2022-09-25T23:59:25.463Z,11.60
